Terminal Aerodrome Forecast
Issued by NWS

Home | Current Version | Previous Version | Text Only | Print | Product List | Glossary On
Versions: 1 2 3 4 5 6 7 8 9 10 11 12 13 14 15 16 17 18
000
FTUS42 KILM 201100
TAFCRE
TAF
KCRE 201120Z 2012/2112 00000KT 6SM BR SCT060 BKN150
     FM201300 30004KT P6SM SCT050 BKN250
     FM201700 17009KT P6SM VCTS SCT025CB BKN050
      TEMPO 2018/2022 3SM TSRA BR BKN025CB OVC045
     FM210000 VRB02KT P6SM FEW250=

USA.gov is the U.S. government's official web portal to all federal, state and local government web resources and services.